sensor_id;sensor_type;location;lat;lon;timestamp;temperature;humidity
31687;DHT22;18285;51.330;4.946;2023-09-30T00:09:11;25.10;52.70
31687;DHT22;18285;51.330;4.946;2023-09-30T00:33:23;25.10;52.50
31687;DHT22;18285;51.330;4.946;2023-09-30T00:57:35;25.00;52.30
31687;DHT22;18285;51.330;4.946;2023-09-30T01:21:47;25.00;52.10
31687;DHT22;18285;51.330;4.946;2023-09-30T01:45:59;25.00;51.90
31687;DHT22;18285;51.330;4.946;2023-09-30T02:10:09;25.00;51.60
31687;DHT22;18285;51.330;4.946;2023-09-30T02:34:20;25.00;51.30
31687;DHT22;18285;51.330;4.946;2023-09-30T02:58:32;25.00;51.20
31687;DHT22;18285;51.330;4.946;2023-09-30T03:22:43;25.00;51.00
31687;DHT22;18285;51.330;4.946;2023-09-30T03:46:53;25.00;50.90
31687;DHT22;18285;51.330;4.946;2023-09-30T04:11:04;25.00;50.80
31687;DHT22;18285;51.330;4.946;2023-09-30T04:35:15;25.00;50.60
31687;DHT22;18285;51.330;4.946;2023-09-30T04:59:26;25.00;50.50
31687;DHT22;18285;51.330;4.946;2023-09-30T05:23:37;25.00;50.20
31687;DHT22;18285;51.330;4.946;2023-09-30T05:47:49;25.00;49.90
31687;DHT22;18285;51.330;4.946;2023-09-30T06:12:00;25.00;49.80
31687;DHT22;18285;51.330;4.946;2023-09-30T06:36:14;25.00;49.60
31687;DHT22;18285;51.330;4.946;2023-09-30T07:00:25;25.00;49.20
31687;DHT22;18285;51.330;4.946;2023-09-30T07:24:37;25.00;49.60
31687;DHT22;18285;51.330;4.946;2023-09-30T07:48:49;25.00;50.50
31687;DHT22;18285;51.330;4.946;2023-09-30T08:13:00;25.10;50.00
31687;DHT22;18285;51.330;4.946;2023-09-30T08:37:13;25.00;50.40
31687;DHT22;18285;51.330;4.946;2023-09-30T09:01:25;25.10;50.40
31687;DHT22;18285;51.330;4.946;2023-09-30T09:25:39;24.70;50.00
31687;DHT22;18285;51.330;4.946;2023-09-30T09:49:53;24.30;51.10
31687;DHT22;18285;51.330;4.946;2023-09-30T10:14:03;24.40;50.90
31687;DHT22;18285;51.330;4.946;2023-09-30T11:02:50;24.40;50.40
31687;DHT22;18285;51.330;4.946;2023-09-30T11:27:01;24.50;50.50
31687;DHT22;18285;51.330;4.946;2023-09-30T11:51:12;24.60;50.00
31687;DHT22;18285;51.330;4.946;2023-09-30T12:15:23;24.60;49.60
31687;DHT22;18285;51.330;4.946;2023-09-30T12:39:33;24.70;49.20
31687;DHT22;18285;51.330;4.946;2023-09-30T13:03:45;24.70;48.80
31687;DHT22;18285;51.330;4.946;2023-09-30T13:27:56;24.70;48.50
31687;DHT22;18285;51.330;4.946;2023-09-30T13:52:07;24.70;48.40
31687;DHT22;18285;51.330;4.946;2023-09-30T14:16:18;24.70;47.80
31687;DHT22;18285;51.330;4.946;2023-09-30T14:40:29;24.70;47.50
31687;DHT22;18285;51.330;4.946;2023-09-30T15:04:40;24.70;47.60
31687;DHT22;18285;51.330;4.946;2023-09-30T15:28:50;24.70;47.50
31687;DHT22;18285;51.330;4.946;2023-09-30T15:53:01;24.70;45.80
31687;DHT22;18285;51.330;4.946;2023-09-30T16:17:12;24.60;46.20
31687;DHT22;18285;51.330;4.946;2023-09-30T16:41:23;24.50;46.00
31687;DHT22;18285;51.330;4.946;2023-09-30T17:05:39;24.50;46.80
31687;DHT22;18285;51.330;4.946;2023-09-30T17:29:50;24.40;47.80
31687;DHT22;18285;51.330;4.946;2023-09-30T17:54:01;24.20;48.30
31687;DHT22;18285;51.330;4.946;2023-09-30T18:18:11;24.40;48.70
31687;DHT22;18285;51.330;4.946;2023-09-30T18:42:22;24.60;48.00
31687;DHT22;18285;51.330;4.946;2023-09-30T19:06:33;24.60;48.30
31687;DHT22;18285;51.330;4.946;2023-09-30T19:30:44;24.70;48.00
31687;DHT22;18285;51.330;4.946;2023-09-30T19:54:55;24.60;48.10
31687;DHT22;18285;51.330;4.946;2023-09-30T20:19:06;24.60;48.10
31687;DHT22;18285;51.330;4.946;2023-09-30T20:43:17;24.60;47.80
31687;DHT22;18285;51.330;4.946;2023-09-30T21:07:28;24.60;47.50
31687;DHT22;18285;51.330;4.946;2023-09-30T21:31:39;24.60;47.30
31687;DHT22;18285;51.330;4.946;2023-09-30T21:55:53;24.60;47.80
31687;DHT22;18285;51.330;4.946;2023-09-30T22:20:05;24.60;49.10
31687;DHT22;18285;51.330;4.946;2023-09-30T22:44:16;24.60;48.00
31687;DHT22;18285;51.330;4.946;2023-09-30T23:08:27;24.60;47.90
31687;DHT22;18285;51.330;4.946;2023-09-30T23:32:38;24.60;48.00
31687;DHT22;18285;51.330;4.946;2023-09-30T23:56:51;24.60;48.10
